CheckWX is a tool to help pilots better visualize weather data.  It is not intended as a substitute for an official pre-flight weather briefing.

08:11:48 UTC

KSFB METAR
Orlando Sanford International Airport
Orlando, Florida, USA
Current

19 mins ago

KSFB 220753Z AUTO 15005KT 10SM CLR 22/21 A3012 RMK AO2 RAE24 SLP199 P0001 T02170211
Observed
Feb-22 @ 07:53 UTC
Wind
  • 150° at 5 KTS
Visibility
10 SM
Flight Rules
VFR
Cloud Levels
  • Clear skies
Temperature
22°C / 72°F
Dewpoint
21°C / 70°F
Humidity
94%
Altimeter
30.12" Hg
Pressure
1019.9 hPa
Current Rain
0.01"
Previous

1 hour ago

KSFB 220653Z AUTO 15007KT 8SM -RA SCT050 BKN060 OVC080 23/21 A3014 RMK AO2 RAB41 SLP204 P0001 T02280211
Observed
Feb-22 @ 06:53 UTC
Wind
  • 150° at 7 KTS
Visibility
8 SM
Flight Rules
VFR
Conditions
Light Rain
Cloud Levels
  • Scattered at 5,000' AGL
  • Broken at 6,000' AGL
  • Overcast at 8,000' AGL
Temperature
23°C / 73°F
Dewpoint
21°C / 70°F
Humidity
89%
Altimeter
30.14" Hg
Pressure
1020.4 hPa
Current Rain
0.01"
Previous

2 hours ago

KSFB 220553Z AUTO 18004KT 10SM BKN047 BKN060 OVC070 23/21 A3014 RMK AO2 SLP204 T02280211 10233 20217 51004
Observed
Feb-22 @ 05:53 UTC
Wind
  • 180° at 4 KTS
Visibility
10 SM
Flight Rules
VFR
Cloud Levels
  • Broken at 4,700' AGL
  • Broken at 6,000' AGL
  • Overcast at 7,000' AGL
Temperature
23°C / 73°F
Dewpoint
21°C / 70°F
Humidity
89%
Altimeter
30.14" Hg
Pressure
1020.4 hPa